Grassy Creek, Kentucky
Current Conditions -  °F | °C
As of 4:53 PM on Thursday 27 Nov 2014 (Local Time) from KJKL Reporting Station
Overcast Overcast  
Wind Chill: 23°   Ceiling: 4000
Heat Index: 30°   Visibility: 10mi
Dew Point: 21°   Wind: 7mph
Humidity: 69%   Direction: 260°W
Pressure: 30.3"   Gusts: NA
Location:  37.8594°N, 83.3736°W
Report Text: KJKL 272153Z AUTO 26006KT 10SM OVC040 M01/M06 A3030 RMK AO2 SLP271 T10111061
Loading
Personal Weather Stations






























Interactive Weather Map New forecast layout! Learn more

10-Day Weather Forecast

Advertisements
Track Severe Weather on mobile